createdAt,value
2022-11-26T00:00:54.106Z,19.20
2022-11-26T00:01:55.771Z,17.10
2022-11-26T00:02:57.972Z,16.65
2022-11-26T00:04:03.066Z,15.30
2022-11-26T00:05:05.035Z,15.18
2022-11-26T00:06:28.742Z,17.13
2022-11-26T00:07:32.955Z,17.20
2022-11-26T00:08:35.733Z,18.75
2022-11-26T00:09:37.856Z,15.93
2022-11-26T00:10:39.550Z,16.50
2022-11-26T00:11:41.604Z,15.50
2022-11-26T00:12:43.325Z,15.88
2022-11-26T00:13:45.142Z,14.00
2022-11-26T00:14:47.268Z,15.48
2022-11-26T00:15:49.789Z,14.63
2022-11-26T00:16:51.579Z,15.25
2022-11-26T00:17:54.189Z,13.90
2022-11-26T00:18:55.879Z,14.05
2022-11-26T00:19:57.450Z,14.98
2022-11-26T00:21:00.912Z,13.88
2022-11-26T00:22:02.585Z,17.65
2022-11-26T00:23:04.664Z,16.00
2022-11-26T00:24:26.101Z,16.75
2022-11-26T00:25:43.148Z,16.02
2022-11-26T00:26:44.711Z,16.77
2022-11-26T00:27:46.732Z,15.95
2022-11-26T00:29:01.214Z,18.48
2022-11-26T00:30:13.729Z,19.02
2022-11-26T00:31:16.790Z,16.35
2022-11-26T00:32:21.207Z,18.33
2022-11-26T00:33:24.052Z,17.30
2022-11-26T00:34:25.637Z,15.95
2022-11-26T00:35:27.266Z,17.00
2022-11-26T00:36:31.850Z,16.58
2022-11-26T00:37:57.347Z,16.48
2022-11-26T00:39:01.220Z,15.55
2022-11-26T00:40:02.883Z,16.50
2022-11-26T00:41:04.745Z,15.43
2022-11-26T00:42:06.306Z,15.32
2022-11-26T00:43:12.146Z,16.65
2022-11-26T00:44:22.333Z,16.08
2022-11-26T00:45:27.562Z,16.00
2022-11-26T00:46:29.418Z,18.25
2022-11-26T00:47:31.022Z,18.73
2022-11-26T00:48:32.615Z,16.27
2022-11-26T00:49:34.222Z,18.02
2022-11-26T00:50:41.288Z,17.10
2022-11-26T00:51:43.495Z,16.25
2022-11-26T00:52:47.397Z,17.00
2022-11-26T00:53:50.572Z,17.08
2022-11-26T00:54:52.190Z,16.80
2022-11-26T00:55:53.835Z,17.00
2022-11-26T00:56:56.186Z,16.48
2022-11-26T00:57:58.433Z,16.55
2022-11-26T00:59:00.032Z,16.55
2022-11-26T01:00:01.927Z,17.00
2022-11-26T01:01:03.593Z,15.43
2022-11-26T01:02:05.265Z,18.48
2022-11-26T01:03:06.992Z,17.77
2022-11-26T01:04:08.678Z,16.40
2022-11-26T01:05:10.444Z,17.40
2022-11-26T01:06:20.170Z,16.23
2022-11-26T01:07:21.885Z,16.90
2022-11-26T01:08:35.972Z,18.90
2022-11-26T01:09:38.548Z,16.30
2022-11-26T01:10:40.133Z,18.08
2022-11-26T01:11:41.714Z,17.58
2022-11-26T01:12:43.395Z,19.13
2022-11-26T01:13:46.895Z,17.75
2022-11-26T01:14:48.503Z,18.70
2022-11-26T01:15:50.183Z,18.58
2022-11-26T01:16:54.909Z,18.30
2022-11-26T01:17:56.727Z,17.88
2022-11-26T01:19:00.021Z,17.83
2022-11-26T01:20:01.713Z,17.77
2022-11-26T01:21:03.389Z,17.95
2022-11-26T01:22:04.988Z,18.38
2022-11-26T01:23:09.261Z,19.85
2022-11-26T01:24:10.917Z,17.38
2022-11-26T01:25:12.506Z,19.95
2022-11-26T01:26:28.614Z,17.92
2022-11-26T01:27:30.269Z,16.52
2022-11-26T01:28:31.914Z,17.63
2022-11-26T01:29:33.503Z,17.42
2022-11-26T01:30:35.224Z,17.58
2022-11-26T01:31:36.866Z,18.60
2022-11-26T01:32:38.493Z,17.73
2022-11-26T01:33:40.195Z,17.60
2022-11-26T01:34:41.811Z,17.50
2022-11-26T01:35:43.578Z,16.67
2022-11-26T01:36:45.182Z,18.27
2022-11-26T01:37:48.244Z,17.80
2022-11-26T01:38:52.532Z,17.83
2022-11-26T01:39:54.106Z,18.00
2022-11-26T01:41:16.524Z,17.30
2022-11-26T01:42:24.595Z,18.70
2022-11-26T01:43:33.161Z,18.05
2022-11-26T01:44:37.132Z,16.60
2022-11-26T01:45:39.130Z,16.63
2022-11-26T01:46:40.919Z,16.80
2022-11-26T01:47:42.874Z,17.90
2022-11-26T01:48:45.700Z,17.42
2022-11-26T01:50:24.520Z,16.25
2022-11-26T01:51:27.716Z,17.38
2022-11-26T01:52:29.299Z,17.63
2022-11-26T01:53:43.418Z,17.77
2022-11-26T01:54:45.688Z,16.40
2022-11-26T01:55:54.233Z,17.27
2022-11-26T01:56:58.790Z,15.85
2022-11-26T01:58:00.586Z,16.85
2022-11-26T01:59:10.726Z,16.05
2022-11-26T02:00:13.045Z,16.55
2022-11-26T02:01:14.989Z,16.75
2022-11-26T02:02:17.755Z,17.85
2022-11-26T02:03:20.008Z,15.30
2022-11-26T02:04:24.426Z,16.73
2022-11-26T02:05:31.504Z,15.95
2022-11-26T02:06:34.545Z,15.43
2022-11-26T02:07:36.761Z,15.95
2022-11-26T02:08:38.695Z,15.20
2022-11-26T02:09:40.939Z,15.25
2022-11-26T02:10:42.654Z,15.90
2022-11-26T02:11:45.050Z,16.23
2022-11-26T02:12:47.497Z,17.05
2022-11-26T02:13:54.154Z,17.05
2022-11-26T02:14:55.885Z,15.20
2022-11-26T02:16:07.835Z,15.80
2022-11-26T02:17:12.384Z,15.23
2022-11-26T02:18:14.819Z,16.35
2022-11-26T02:19:45.337Z,17.02
2022-11-26T02:20:59.991Z,16.92
2022-11-26T02:22:26.369Z,16.40
2022-11-26T02:23:46.954Z,16.40
2022-11-26T02:25:11.210Z,15.25
2022-11-26T02:26:37.343Z,15.00
2022-11-26T02:27:49.920Z,15.63
2022-11-26T02:29:00.104Z,16.08
2022-11-26T02:30:10.570Z,14.75
2022-11-26T02:31:17.338Z,15.55
2022-11-26T02:32:26.091Z,15.52
2022-11-26T02:33:53.848Z,16.50
2022-11-26T02:35:12.600Z,13.90
2022-11-26T02:36:31.921Z,13.95
2022-11-26T02:37:46.768Z,13.23
2022-11-26T02:38:48.475Z,15.38
2022-11-26T02:39:51.394Z,15.40
2022-11-26T02:40:53.231Z,16.05
2022-11-26T02:41:57.977Z,15.30
2022-11-26T02:42:59.662Z,15.82
2022-11-26T02:44:01.413Z,15.43
2022-11-26T02:45:11.412Z,14.98
2022-11-26T02:46:18.650Z,16.33
2022-11-26T02:47:21.682Z,15.52
2022-11-26T02:48:27.556Z,15.95
2022-11-26T02:49:30.482Z,15.05
2022-11-26T02:50:54.107Z,15.70
2022-11-26T02:51:59.645Z,15.23
2022-11-26T02:53:02.452Z,15.57
2022-11-26T02:54:06.458Z,16.92
2022-11-26T02:55:10.450Z,17.27
2022-11-26T02:56:17.246Z,15.80
2022-11-26T02:57:21.334Z,16.35
2022-11-26T02:58:22.950Z,16.42
2022-11-26T02:59:24.793Z,16.35
2022-11-26T03:00:26.591Z,18.00
2022-11-26T03:01:37.156Z,16.90
2022-11-26T03:02:46.389Z,17.17
2022-11-26T03:03:50.743Z,16.40
2022-11-26T03:04:57.997Z,15.85
2022-11-26T03:06:05.592Z,16.77
2022-11-26T03:07:09.601Z,14.98
2022-11-26T03:08:11.452Z,16.05
2022-11-26T03:09:15.581Z,15.77
2022-11-26T03:10:20.200Z,15.65
2022-11-26T03:11:22.112Z,15.57
2022-11-26T03:12:24.515Z,16.35
2022-11-26T03:13:26.269Z,16.45
2022-11-26T03:14:27.873Z,16.60
2022-11-26T03:15:29.469Z,15.82
2022-11-26T03:16:31.110Z,15.57
2022-11-26T03:17:32.822Z,15.88
2022-11-26T03:18:34.477Z,15.82
2022-11-26T03:19:36.061Z,15.23
2022-11-26T03:20:37.642Z,14.93
2022-11-26T03:21:39.216Z,14.23
2022-11-26T03:22:41.070Z,15.15
2022-11-26T03:23:42.681Z,13.73
2022-11-26T03:24:44.346Z,14.07
2022-11-26T03:25:46.030Z,13.95
2022-11-26T03:26:47.587Z,15.25
2022-11-26T03:27:49.152Z,12.65
2022-11-26T03:28:50.726Z,13.38
2022-11-26T03:29:52.382Z,13.57
2022-11-26T03:30:53.989Z,14.32
2022-11-26T03:31:56.233Z,13.23
2022-11-26T03:32:58.048Z,14.82
2022-11-26T03:33:59.634Z,13.32
2022-11-26T03:35:01.294Z,13.23
2022-11-26T03:36:03.206Z,12.35
2022-11-26T03:37:04.777Z,12.73
2022-11-26T03:38:06.368Z,12.57
2022-11-26T03:39:07.946Z,12.90
2022-11-26T03:40:09.998Z,13.32
2022-11-26T03:41:11.755Z,12.13
2022-11-26T03:42:13.366Z,12.32
2022-11-26T03:43:14.962Z,11.02
2022-11-26T03:44:16.533Z,11.73
2022-11-26T03:45:18.209Z,11.40
2022-11-26T03:46:20.173Z,12.52
2022-11-26T03:47:21.933Z,12.00
2022-11-26T03:48:23.582Z,11.55
2022-11-26T03:49:25.212Z,12.43
2022-11-26T03:50:26.827Z,12.95
2022-11-26T03:51:28.421Z,11.05
2022-11-26T03:52:29.980Z,11.52
2022-11-26T03:53:31.832Z,11.57
2022-11-26T03:54:33.404Z,10.95
2022-11-26T03:55:35.234Z,10.90
2022-11-26T03:56:36.895Z,11.10
2022-11-26T03:57:38.793Z,10.45
2022-11-26T03:58:40.656Z,11.93
2022-11-26T03:59:42.272Z,12.05
2022-11-26T04:00:43.953Z,11.52
2022-11-26T04:01:45.797Z,11.30
2022-11-26T04:02:47.553Z,10.98
2022-11-26T04:03:49.178Z,11.25
2022-11-26T04:04:51.106Z,10.77
2022-11-26T04:05:52.674Z,12.27
2022-11-26T04:06:54.260Z,12.32
2022-11-26T04:07:55.910Z,12.15
2022-11-26T04:08:57.559Z,13.35
2022-11-26T04:09:59.175Z,13.25
2022-11-26T04:11:00.788Z,13.38
2022-11-26T04:12:02.449Z,13.13
2022-11-26T04:13:04.085Z,14.23
2022-11-26T04:14:05.692Z,13.02
2022-11-26T04:15:07.941Z,14.13
2022-11-26T04:16:09.982Z,14.63
2022-11-26T04:17:12.062Z,13.55
2022-11-26T04:18:13.779Z,13.00
2022-11-26T04:19:15.356Z,13.60
2022-11-26T04:20:17.108Z,12.75
2022-11-26T04:21:18.719Z,13.50
2022-11-26T04:22:20.341Z,11.95
2022-11-26T04:23:22.263Z,14.30
2022-11-26T04:24:24.091Z,14.40
2022-11-26T04:25:26.217Z,14.60
2022-11-26T04:26:28.057Z,14.38
2022-11-26T04:27:29.687Z,13.23
2022-11-26T04:28:31.328Z,13.32
2022-11-26T04:29:32.924Z,13.75
2022-11-26T04:30:34.516Z,13.80
2022-11-26T04:31:36.478Z,13.63
2022-11-26T04:32:39.838Z,15.02
2022-11-26T04:33:42.279Z,14.70
2022-11-26T04:34:43.877Z,14.60
2022-11-26T04:35:45.519Z,14.75
2022-11-26T04:36:47.131Z,15.05
2022-11-26T04:37:48.826Z,16.17
2022-11-26T04:38:50.598Z,16.05
2022-11-26T04:39:52.246Z,16.83
2022-11-26T04:40:53.948Z,16.58
2022-11-26T04:41:55.511Z,17.83
2022-11-26T04:42:57.085Z,16.00
2022-11-26T04:43:58.688Z,15.75
2022-11-26T04:45:00.288Z,16.67
2022-11-26T04:46:02.107Z,17.00
2022-11-26T04:47:03.781Z,17.17
2022-11-26T04:48:06.122Z,17.15
2022-11-26T04:49:07.728Z,16.10
2022-11-26T04:50:10.238Z,16.60
2022-11-26T04:51:11.808Z,17.20
2022-11-26T04:52:13.487Z,15.05
2022-11-26T04:53:15.518Z,15.40
2022-11-26T04:54:17.135Z,16.08
2022-11-26T04:55:18.975Z,16.30
2022-11-26T04:56:20.575Z,15.93
2022-11-26T04:57:22.197Z,15.45
2022-11-26T04:58:28.561Z,15.90
2022-11-26T04:59:30.189Z,15.70
2022-11-26T05:00:31.823Z,15.65
2022-11-26T05:01:33.524Z,15.75
2022-11-26T05:02:35.455Z,17.45
2022-11-26T05:03:37.119Z,15.40
2022-11-26T05:04:38.958Z,16.17
2022-11-26T05:05:40.955Z,14.98
2022-11-26T05:06:42.547Z,14.20
2022-11-26T05:07:44.213Z,15.20
2022-11-26T05:08:45.894Z,13.57
2022-11-26T05:09:47.550Z,13.35
2022-11-26T05:10:54.208Z,14.23
2022-11-26T05:11:55.791Z,14.43
2022-11-26T05:12:57.356Z,14.32
2022-11-26T05:13:58.957Z,12.52
2022-11-26T05:15:00.545Z,12.90
2022-11-26T05:16:02.132Z,13.68
2022-11-26T05:17:03.757Z,13.20
2022-11-26T05:18:05.522Z,13.25
2022-11-26T05:19:07.105Z,12.52
2022-11-26T05:20:09.299Z,13.65
2022-11-26T05:21:10.911Z,14.40
2022-11-26T05:22:12.575Z,12.95
2022-11-26T05:23:14.197Z,12.48
2022-11-26T05:24:15.769Z,12.93
2022-11-26T05:25:17.464Z,13.35
2022-11-26T05:26:19.249Z,12.10
2022-11-26T05:27:20.836Z,13.05
2022-11-26T05:28:22.389Z,13.02
2022-11-26T05:29:24.491Z,13.23
2022-11-26T05:30:26.098Z,12.35
2022-11-26T05:31:29.150Z,12.55
2022-11-26T05:32:30.784Z,13.20
2022-11-26T05:33:32.407Z,13.10
2022-11-26T05:34:34.031Z,11.77
2022-11-26T05:35:37.197Z,12.35
2022-11-26T05:36:38.817Z,11.60
2022-11-26T05:37:40.419Z,10.85
2022-11-26T05:38:42.015Z,10.98
2022-11-26T05:39:43.625Z,11.95
2022-11-26T05:40:45.215Z,10.88
2022-11-26T05:41:46.836Z,12.05
2022-11-26T05:42:48.428Z,11.50
2022-11-26T05:43:50.054Z,13.13
2022-11-26T05:44:51.641Z,12.18
2022-11-26T05:45:53.306Z,11.90
2022-11-26T05:46:54.980Z,12.88
2022-11-26T05:47:56.547Z,12.20
2022-11-26T05:48:58.111Z,14.07
2022-11-26T05:49:59.708Z,14.55
2022-11-26T05:51:02.301Z,13.10
2022-11-26T05:52:04.220Z,13.40
2022-11-26T05:53:05.964Z,13.93
2022-11-26T05:54:07.680Z,14.27
2022-11-26T05:55:09.924Z,15.48
2022-11-26T05:56:11.528Z,14.50
2022-11-26T05:57:13.245Z,16.77
2022-11-26T05:58:14.833Z,16.40
2022-11-26T05:59:16.477Z,15.85
2022-11-26T06:00:18.368Z,17.35
2022-11-26T06:01:19.961Z,16.40
2022-11-26T06:02:21.832Z,16.65
2022-11-26T06:03:23.560Z,16.50
2022-11-26T06:04:25.283Z,17.30
2022-11-26T06:05:26.900Z,18.10
2022-11-26T06:06:28.534Z,16.63
2022-11-26T06:07:30.254Z,17.23
2022-11-26T06:08:31.906Z,17.33
2022-11-26T06:09:33.680Z,16.90
2022-11-26T06:10:35.384Z,17.42
2022-11-26T06:11:36.997Z,18.73
2022-11-26T06:12:38.776Z,19.15
2022-11-26T06:13:40.374Z,18.10
2022-11-26T06:14:43.614Z,23.40
2022-11-26T06:15:45.665Z,21.15
2022-11-26T06:16:47.532Z,19.38
2022-11-26T06:17:49.225Z,18.83
2022-11-26T06:18:50.793Z,19.17
2022-11-26T06:19:52.457Z,18.88
2022-11-26T06:20:54.399Z,18.35
2022-11-26T06:21:56.016Z,19.95
2022-11-26T06:22:57.680Z,16.48
2022-11-26T06:23:59.959Z,15.80
2022-11-26T06:25:01.652Z,16.27
2022-11-26T06:26:10.204Z,15.57
2022-11-26T06:27:11.855Z,15.70
2022-11-26T06:28:13.692Z,15.35
2022-11-26T06:29:15.544Z,15.85
2022-11-26T06:30:17.158Z,15.77
2022-11-26T06:31:18.810Z,15.48
2022-11-26T06:32:20.425Z,17.98
2022-11-26T06:33:22.127Z,17.75
2022-11-26T06:34:23.804Z,17.33
2022-11-26T06:35:25.431Z,16.70
2022-11-26T06:36:27.125Z,15.75
2022-11-26T06:37:28.785Z,15.73
2022-11-26T06:38:30.521Z,19.65
2022-11-26T06:39:32.059Z,16.58
2022-11-26T06:40:33.646Z,16.60
2022-11-26T06:41:35.272Z,16.88
2022-11-26T06:42:36.883Z,18.20
2022-11-26T06:43:38.540Z,17.42
2022-11-26T06:44:40.462Z,17.92
2022-11-26T06:45:42.268Z,17.42
2022-11-26T06:46:43.867Z,16.13
2022-11-26T06:47:49.903Z,16.55
2022-11-26T06:48:51.542Z,16.65
2022-11-26T06:49:53.508Z,21.15
2022-11-26T06:50:55.137Z,16.95
2022-11-26T06:51:56.736Z,19.42
2022-11-26T06:52:58.424Z,17.25
2022-11-26T06:54:00.087Z,16.60
2022-11-26T06:55:01.657Z,20.27
2022-11-26T06:56:04.881Z,19.00
2022-11-26T06:57:06.609Z,18.50
2022-11-26T06:58:08.258Z,19.27
2022-11-26T06:59:09.905Z,19.02
2022-11-26T07:00:12.509Z,17.90
2022-11-26T07:01:18.482Z,18.58
2022-11-26T07:02:20.215Z,17.92
2022-11-26T07:03:24.840Z,18.15
2022-11-26T07:04:27.943Z,16.98
2022-11-26T07:05:29.559Z,17.65
2022-11-26T07:06:32.973Z,20.23
2022-11-26T07:07:37.898Z,17.35
2022-11-26T07:08:39.495Z,16.83
2022-11-26T07:09:41.482Z,20.77
2022-11-26T07:10:48.685Z,18.30
2022-11-26T07:11:50.742Z,20.98
2022-11-26T07:12:52.370Z,20.58
2022-11-26T07:13:54.377Z,20.50
2022-11-26T07:14:56.056Z,18.05
2022-11-26T07:16:02.871Z,16.55
2022-11-26T07:17:04.671Z,18.35
2022-11-26T07:18:06.272Z,17.20
2022-11-26T07:19:10.983Z,16.42
2022-11-26T07:20:13.678Z,18.70
2022-11-26T07:21:15.766Z,18.15
2022-11-26T07:22:17.556Z,17.80
2022-11-26T07:23:19.316Z,16.85
2022-11-26T07:24:20.932Z,18.50
2022-11-26T07:25:22.645Z,20.75
2022-11-26T07:26:24.313Z,20.00
2022-11-26T07:27:25.912Z,17.92
2022-11-26T07:28:28.457Z,17.70
2022-11-26T07:29:30.337Z,17.80
2022-11-26T07:30:32.119Z,17.25
2022-11-26T07:31:33.858Z,18.52
2022-11-26T07:32:35.569Z,19.77
2022-11-26T07:33:37.605Z,20.20
2022-11-26T07:34:39.521Z,18.30
2022-11-26T07:35:41.234Z,17.35
2022-11-26T07:36:43.481Z,17.55
2022-11-26T07:37:45.176Z,18.60
2022-11-26T07:38:47.521Z,16.65
2022-11-26T07:39:49.532Z,20.40
2022-11-26T07:40:51.151Z,19.23
2022-11-26T07:41:52.713Z,19.60
2022-11-26T07:42:54.279Z,17.90
2022-11-26T07:43:55.972Z,18.15
2022-11-26T07:44:57.564Z,20.95
2022-11-26T07:46:02.489Z,20.25
2022-11-26T07:47:04.309Z,18.13
2022-11-26T07:48:06.192Z,17.90
2022-11-26T07:49:08.347Z,22.38
2022-11-26T07:50:10.035Z,23.98
2022-11-26T07:51:21.432Z,19.92
2022-11-26T07:52:23.025Z,20.00
2022-11-26T07:53:24.820Z,17.98
2022-11-26T07:54:26.397Z,17.75
2022-11-26T07:55:28.056Z,17.05
2022-11-26T07:56:29.908Z,17.45
2022-11-26T07:57:32.209Z,16.25
2022-11-26T07:58:33.905Z,19.75
2022-11-26T07:59:35.487Z,22.10
2022-11-26T08:00:37.096Z,20.60
2022-11-26T08:01:38.788Z,24.08
2022-11-26T08:02:40.456Z,19.10
2022-11-26T08:03:44.296Z,17.60
2022-11-26T08:04:45.925Z,20.98
2022-11-26T08:05:47.513Z,22.63
2022-11-26T08:06:49.161Z,18.48
2022-11-26T08:07:50.879Z,15.05
2022-11-26T08:08:53.117Z,17.00
2022-11-26T08:09:54.757Z,22.42
2022-11-26T08:10:56.310Z,20.52
2022-11-26T08:11:57.918Z,20.77
2022-11-26T08:12:59.536Z,19.55
2022-11-26T08:14:04.170Z,18.08
2022-11-26T08:15:06.216Z,19.60
2022-11-26T08:16:07.905Z,18.80
2022-11-26T08:17:09.516Z,18.63
2022-11-26T08:18:11.819Z,21.60
2022-11-26T08:19:15.316Z,17.35
2022-11-26T08:20:17.011Z,20.23
2022-11-26T08:21:18.560Z,18.63
2022-11-26T08:22:20.185Z,18.13
2022-11-26T08:23:21.761Z,19.42
2022-11-26T08:24:23.759Z,18.38
2022-11-26T08:25:25.357Z,20.92
2022-11-26T08:26:35.844Z,21.42
2022-11-26T08:27:40.185Z,21.60
2022-11-26T08:28:45.850Z,16.35
2022-11-26T08:29:47.421Z,17.88
2022-11-26T08:30:49.183Z,18.58
2022-11-26T08:31:51.044Z,19.10
2022-11-26T08:32:52.929Z,16.88
2022-11-26T08:34:01.874Z,21.33
2022-11-26T08:35:03.793Z,18.33
2022-11-26T08:36:08.754Z,17.75
2022-11-26T08:37:10.464Z,18.85
2022-11-26T08:38:12.026Z,14.52
2022-11-26T08:39:17.221Z,14.52
2022-11-26T08:40:18.970Z,13.95
2022-11-26T08:41:20.783Z,16.15
2022-11-26T08:42:22.385Z,18.10
2022-11-26T08:43:34.646Z,14.55
2022-11-26T08:44:45.584Z,14.23
2022-11-26T08:45:58.903Z,11.98
2022-11-26T08:47:00.543Z,12.43
2022-11-26T08:48:02.128Z,11.75
2022-11-26T08:49:04.457Z,14.05
2022-11-26T08:50:06.672Z,12.63
2022-11-26T08:51:11.647Z,13.50
2022-11-26T08:52:13.201Z,12.48
2022-11-26T08:53:15.427Z,12.15
2022-11-26T08:54:17.203Z,12.90
2022-11-26T08:55:23.724Z,11.98
2022-11-26T08:56:25.833Z,12.48
2022-11-26T08:57:27.414Z,13.82
2022-11-26T08:58:29.473Z,17.02
2022-11-26T08:59:31.220Z,12.70
2022-11-26T09:00:32.864Z,12.95
2022-11-26T09:01:34.627Z,13.85
2022-11-26T09:02:36.327Z,12.55
2022-11-26T09:03:41.086Z,12.93
2022-11-26T09:04:42.940Z,12.18
2022-11-26T09:05:45.054Z,15.20
2022-11-26T09:06:46.687Z,16.95
2022-11-26T09:07:49.152Z,12.88
2022-11-26T09:09:09.679Z,13.82
2022-11-26T09:10:11.753Z,13.38
2022-11-26T09:11:13.336Z,14.27
2022-11-26T09:12:14.964Z,12.15
2022-11-26T09:13:20.907Z,14.63
2022-11-26T09:14:27.902Z,22.73
2022-11-26T09:15:29.843Z,13.95
2022-11-26T09:16:31.929Z,45.00
2022-11-26T09:17:33.545Z,24.33
2022-11-26T09:18:35.130Z,21.92
2022-11-26T09:19:36.866Z,16.40
2022-11-26T09:20:38.508Z,15.35
2022-11-26T09:21:40.170Z,12.95
2022-11-26T09:22:41.797Z,11.65
2022-11-26T09:23:43.438Z,13.25
2022-11-26T09:24:45.056Z,12.02
2022-11-26T09:25:49.580Z,11.60
2022-11-26T09:26:51.387Z,10.90
2022-11-26T09:27:52.955Z,11.27
2022-11-26T09:28:54.531Z,10.25
2022-11-26T09:29:56.862Z,12.82
2022-11-26T09:30:59.107Z,11.80
2022-11-26T09:32:22.532Z,13.82
2022-11-26T09:33:23.531Z,11.30
2022-11-26T09:34:25.357Z,14.35
2022-11-26T09:35:27.799Z,15.60
2022-11-26T09:36:30.231Z,14.25
2022-11-26T09:37:32.716Z,13.85
2022-11-26T09:38:35.021Z,12.35
2022-11-26T09:39:41.390Z,12.82
2022-11-26T09:41:03.353Z,12.98
2022-11-26T09:42:19.266Z,10.80
2022-11-26T09:43:31.499Z,10.60
2022-11-26T09:44:40.783Z,10.90
2022-11-26T09:45:49.853Z,9.65
2022-11-26T09:47:32.784Z,8.82
2022-11-26T09:48:35.075Z,8.52
2022-11-26T09:49:52.496Z,8.85
2022-11-26T09:51:04.276Z,8.40
2022-11-26T09:52:09.775Z,9.45
2022-11-26T09:53:26.451Z,8.20
2022-11-26T09:54:30.157Z,9.27
2022-11-26T09:55:35.239Z,9.10
2022-11-26T09:56:38.093Z,8.73
2022-11-26T09:57:48.241Z,9.63
2022-11-26T09:59:02.725Z,9.50
2022-11-26T10:00:06.956Z,8.60
2022-11-26T10:01:17.280Z,8.90
2022-11-26T10:02:19.280Z,8.05
2022-11-26T10:03:24.056Z,8.70
2022-11-26T10:04:31.152Z,9.13
2022-11-26T10:05:47.902Z,9.98
2022-11-26T10:07:15.547Z,7.80
2022-11-26T10:08:48.489Z,9.30
2022-11-26T10:10:00.312Z,9.23
2022-11-26T10:11:20.837Z,9.25
2022-11-26T10:12:31.035Z,9.02
2022-11-26T10:13:46.215Z,10.27
2022-11-26T10:15:06.873Z,10.02
2022-11-26T10:16:25.446Z,9.70
2022-11-26T10:17:35.828Z,11.20
2022-11-26T10:18:45.976Z,8.65
2022-11-26T10:20:28.461Z,8.23
2022-11-26T10:21:58.189Z,7.45
2022-11-26T10:23:21.560Z,7.18
2022-11-26T10:24:33.174Z,8.00
2022-11-26T10:25:42.441Z,7.38
2022-11-26T10:26:44.715Z,7.97
2022-11-26T10:27:49.324Z,8.05
2022-11-26T10:28:56.784Z,7.75
2022-11-26T10:30:09.583Z,8.73
2022-11-26T10:31:27.165Z,7.85
2022-11-26T10:32:38.820Z,8.70
2022-11-26T10:33:54.341Z,7.15
2022-11-26T10:34:57.759Z,7.35
2022-11-26T10:35:59.407Z,7.65
2022-11-26T10:37:01.210Z,8.52
2022-11-26T10:38:02.888Z,8.60
2022-11-26T10:39:07.177Z,9.18
2022-11-26T10:40:26.429Z,9.45
2022-11-26T10:41:35.174Z,9.13
2022-11-26T10:42:42.337Z,9.65
2022-11-26T10:43:44.003Z,7.85
2022-11-26T10:44:46.847Z,8.07
2022-11-26T10:45:54.071Z,8.52
2022-11-26T10:46:57.116Z,8.75
2022-11-26T10:48:23.821Z,6.97
2022-11-26T10:49:29.652Z,7.68
2022-11-26T10:50:50.258Z,7.20
2022-11-26T10:51:56.008Z,8.05
2022-11-26T10:53:05.802Z,8.20
2022-11-26T10:54:27.298Z,7.63
2022-11-26T10:55:39.411Z,8.80
2022-11-26T10:56:46.812Z,8.85
2022-11-26T10:58:16.026Z,8.60
2022-11-26T10:59:19.327Z,8.52
2022-11-26T11:00:39.219Z,9.77
2022-11-26T11:01:41.976Z,9.05
2022-11-26T11:02:48.678Z,8.23
2022-11-26T11:04:13.082Z,10.50
2022-11-26T11:05:20.584Z,8.20
2022-11-26T11:06:28.096Z,7.68
2022-11-26T11:07:36.932Z,8.60
2022-11-26T11:08:38.698Z,9.73
2022-11-26T11:09:40.293Z,8.15
2022-11-26T11:10:55.575Z,11.57
2022-11-26T11:12:11.968Z,8.70
2022-11-26T11:13:13.666Z,10.00
2022-11-26T11:14:29.004Z,7.05
2022-11-26T11:15:33.887Z,8.10
2022-11-26T11:16:43.309Z,8.65
2022-11-26T11:17:46.822Z,8.25
2022-11-26T11:19:02.623Z,8.88
2022-11-26T11:20:16.434Z,7.22
2022-11-26T11:21:19.647Z,9.98
2022-11-26T11:22:22.283Z,8.23
2022-11-26T11:23:40.372Z,10.10
2022-11-26T11:24:48.541Z,7.75
2022-11-26T11:26:02.669Z,8.00
2022-11-26T11:27:04.300Z,7.63
2022-11-26T11:28:12.948Z,8.20
2022-11-26T11:29:29.510Z,7.50
2022-11-26T11:30:34.573Z,7.15
2022-11-26T11:31:47.065Z,7.38
2022-11-26T11:32:48.948Z,8.18
2022-11-26T11:33:51.716Z,7.22
2022-11-26T11:34:53.554Z,8.80
2022-11-26T11:36:01.870Z,8.32
2022-11-26T11:37:15.650Z,8.35
2022-11-26T11:38:23.723Z,8.45
2022-11-26T11:39:33.574Z,6.90
2022-11-26T11:40:41.657Z,8.10
2022-11-26T11:41:47.030Z,6.63
2022-11-26T11:42:52.721Z,6.45
2022-11-26T11:44:16.539Z,6.70
2022-11-26T11:45:41.110Z,6.78
2022-11-26T11:47:01.732Z,7.22
2022-11-26T11:48:29.352Z,7.20
2022-11-26T11:49:30.922Z,6.85
2022-11-26T11:50:49.917Z,6.60
2022-11-26T11:52:10.082Z,6.88
2022-11-26T11:53:20.155Z,7.80
2022-11-26T11:54:29.207Z,6.35
2022-11-26T11:56:02.211Z,8.52
2022-11-26T11:57:16.998Z,7.75
2022-11-26T11:58:31.611Z,5.95
2022-11-26T12:00:10.664Z,8.23
2022-11-26T12:01:47.384Z,8.10
2022-11-26T12:03:10.656Z,7.00
2022-11-26T12:04:26.460Z,5.78
2022-11-26T12:05:52.784Z,7.03
2022-11-26T12:07:31.587Z,6.10
2022-11-26T12:08:39.090Z,4.70
2022-11-26T12:09:52.708Z,5.85
2022-11-26T12:11:38.747Z,12.48
2022-11-26T12:12:48.232Z,10.88
2022-11-26T12:14:02.285Z,7.55
2022-11-26T12:15:10.680Z,7.80
2022-11-26T12:16:16.288Z,5.00
2022-11-26T12:17:33.446Z,5.10
2022-11-26T12:19:02.841Z,4.80
2022-11-26T12:20:30.354Z,6.20
2022-11-26T12:21:41.695Z,4.43
2022-11-26T12:22:58.949Z,5.30
2022-11-26T12:24:06.683Z,5.00
2022-11-26T12:25:35.354Z,4.43
2022-11-26T12:26:49.824Z,5.67
2022-11-26T12:28:06.782Z,4.60
2022-11-26T12:29:29.032Z,5.47
2022-11-26T12:30:50.444Z,5.90
2022-11-26T12:31:58.358Z,5.40
2022-11-26T12:33:06.959Z,6.17
2022-11-26T12:34:22.275Z,6.27
2022-11-26T12:35:35.435Z,5.10
2022-11-26T12:36:43.270Z,5.37
2022-11-26T12:37:49.321Z,5.30
2022-11-26T12:38:58.874Z,6.07
2022-11-26T12:40:31.542Z,5.30
2022-11-26T12:41:59.290Z,4.67
2022-11-26T12:43:16.584Z,5.97
2022-11-26T12:44:42.642Z,6.43
2022-11-26T12:45:53.525Z,5.20
2022-11-26T12:47:31.694Z,5.40
2022-11-26T12:49:50.582Z,5.05
2022-11-26T12:50:56.932Z,4.32
2022-11-26T12:52:05.068Z,4.95
2022-11-26T12:53:20.138Z,5.47
2022-11-26T12:54:43.768Z,6.40
2022-11-26T12:56:01.276Z,4.45
2022-11-26T12:57:17.865Z,4.10
2022-11-26T12:58:29.075Z,4.65
2022-11-26T12:59:45.449Z,5.40
2022-11-26T13:00:49.605Z,4.07
2022-11-26T13:01:51.478Z,4.95
2022-11-26T13:02:53.738Z,5.15
2022-11-26T13:04:14.757Z,5.35
2022-11-26T13:05:29.259Z,4.32
2022-11-26T13:06:33.552Z,4.10
2022-11-26T13:07:50.849Z,4.30
2022-11-26T13:09:04.438Z,4.93
2022-11-26T13:10:16.013Z,4.45
2022-11-26T13:11:43.193Z,4.38
2022-11-26T13:12:59.871Z,5.35
2022-11-26T13:14:01.484Z,4.53
2022-11-26T13:15:29.584Z,6.00
2022-11-26T13:16:45.981Z,5.18
2022-11-26T13:17:49.292Z,4.78
2022-11-26T13:19:00.643Z,4.82
2022-11-26T13:20:31.835Z,4.28
2022-11-26T13:22:11.712Z,5.10
2022-11-26T13:23:25.782Z,5.28
2022-11-26T13:24:43.992Z,5.20
2022-11-26T13:25:58.793Z,4.80
2022-11-26T13:27:15.432Z,4.25
2022-11-26T13:28:29.208Z,5.10
2022-11-26T13:29:55.487Z,6.00
2022-11-26T13:31:23.424Z,4.65
2022-11-26T13:32:39.900Z,5.03
2022-11-26T13:33:41.450Z,5.03
2022-11-26T13:35:10.801Z,6.93
2022-11-26T13:36:25.242Z,6.88
2022-11-26T13:37:44.911Z,5.35
2022-11-26T13:39:03.203Z,6.80
2022-11-26T13:40:22.884Z,5.50
2022-11-26T13:41:46.879Z,5.40
2022-11-26T13:43:06.250Z,6.32
2022-11-26T13:44:23.162Z,6.45
2022-11-26T13:45:58.489Z,6.50
2022-11-26T13:47:03.494Z,6.95
2022-11-26T13:48:09.448Z,5.93
2022-11-26T13:49:33.189Z,5.75
2022-11-26T13:51:09.407Z,6.05
2022-11-26T13:52:23.691Z,6.80
2022-11-26T13:53:33.551Z,5.65
2022-11-26T13:54:47.737Z,6.82
2022-11-26T13:55:57.789Z,6.28
2022-11-26T13:57:08.713Z,6.00
2022-11-26T13:58:20.959Z,10.60
2022-11-26T13:59:38.997Z,4.65
2022-11-26T14:00:40.735Z,4.90
2022-11-26T14:01:42.989Z,5.50
2022-11-26T14:02:46.692Z,5.60
2022-11-26T14:03:49.420Z,6.40
2022-11-26T14:04:52.589Z,21.92
2022-11-26T14:05:57.221Z,18.23
2022-11-26T14:07:04.560Z,8.88
2022-11-26T14:08:35.697Z,13.25
2022-11-26T14:09:46.122Z,7.53
2022-11-26T14:10:47.853Z,5.93
2022-11-26T14:11:54.260Z,6.85
2022-11-26T14:13:02.183Z,7.82
2022-11-26T14:14:25.741Z,7.07
2022-11-26T14:15:42.651Z,6.15
2022-11-26T14:17:02.654Z,6.40
2022-11-26T14:18:05.037Z,6.82
2022-11-26T14:19:06.678Z,7.03
2022-11-26T14:20:09.053Z,6.93
2022-11-26T14:21:11.490Z,7.15
2022-11-26T14:22:22.251Z,6.00
2022-11-26T14:23:42.515Z,6.30
2022-11-26T14:24:49.535Z,6.25